sensor_id;sensor_type;location;lat;lon;timestamp;P1;durP1;ratioP1;P2;durP2;ratioP2
14066;SDS011;7108;42.684;23.350;2023-03-14T00:01:32;190.37;;;70.40;;
14066;SDS011;7108;42.684;23.350;2023-03-14T00:03:58;198.43;;;69.50;;
14066;SDS011;7108;42.684;23.350;2023-03-14T00:06:24;213.10;;;71.30;;
14066;SDS011;7108;42.684;23.350;2023-03-14T00:08:50;225.70;;;71.55;;
14066;SDS011;7108;42.684;23.350;2023-03-14T00:11:20;203.70;;;69.45;;
14066;SDS011;7108;42.684;23.350;2023-03-14T00:13:49;214.60;;;71.60;;
14066;SDS011;7108;42.684;23.350;2023-03-14T00:16:16;209.73;;;72.65;;
14066;SDS011;7108;42.684;23.350;2023-03-14T00:18:44;206.80;;;70.20;;
14066;SDS011;7108;42.684;23.350;2023-03-14T00:21:10;195.77;;;70.17;;
14066;SDS011;7108;42.684;23.350;2023-03-14T00:23:37;197.00;;;68.43;;
14066;SDS011;7108;42.684;23.350;2023-03-14T00:26:04;199.13;;;69.97;;
14066;SDS011;7108;42.684;23.350;2023-03-14T00:28:34;191.60;;;68.68;;
14066;SDS011;7108;42.684;23.350;2023-03-14T00:31:07;191.38;;;69.15;;
14066;SDS011;7108;42.684;23.350;2023-03-14T00:33:35;181.23;;;66.82;;
14066;SDS011;7108;42.684;23.350;2023-03-14T00:36:05;195.80;;;69.07;;
14066;SDS011;7108;42.684;23.350;2023-03-14T00:38:34;179.48;;;66.65;;
14066;SDS011;7108;42.684;23.350;2023-03-14T00:41:02;183.45;;;66.25;;
14066;SDS011;7108;42.684;23.350;2023-03-14T00:43:29;179.30;;;67.65;;
14066;SDS011;7108;42.684;23.350;2023-03-14T00:45:54;196.30;;;68.90;;
14066;SDS011;7108;42.684;23.350;2023-03-14T00:48:20;181.93;;;67.83;;
14066;SDS011;7108;42.684;23.350;2023-03-14T00:50:46;188.82;;;70.50;;
14066;SDS011;7108;42.684;23.350;2023-03-14T00:53:12;188.60;;;69.60;;
14066;SDS011;7108;42.684;23.350;2023-03-14T00:55:38;183.60;;;69.33;;
14066;SDS011;7108;42.684;23.350;2023-03-14T00:58:05;187.80;;;66.97;;
14066;SDS011;7108;42.684;23.350;2023-03-14T01:00:31;179.18;;;68.65;;
14066;SDS011;7108;42.684;23.350;2023-03-14T01:02:57;212.13;;;70.57;;
14066;SDS011;7108;42.684;23.350;2023-03-14T01:05:23;206.53;;;70.30;;
14066;SDS011;7108;42.684;23.350;2023-03-14T01:07:49;183.13;;;67.37;;
14066;SDS011;7108;42.684;23.350;2023-03-14T01:10:14;201.40;;;70.67;;
14066;SDS011;7108;42.684;23.350;2023-03-14T01:12:40;198.70;;;72.28;;
14066;SDS011;7108;42.684;23.350;2023-03-14T01:15:06;193.87;;;69.53;;
14066;SDS011;7108;42.684;23.350;2023-03-14T01:17:32;189.60;;;69.63;;
14066;SDS011;7108;42.684;23.350;2023-03-14T01:19:59;196.17;;;69.87;;
14066;SDS011;7108;42.684;23.350;2023-03-14T01:22:24;212.90;;;70.68;;
14066;SDS011;7108;42.684;23.350;2023-03-14T01:24:50;212.17;;;70.37;;
14066;SDS011;7108;42.684;23.350;2023-03-14T01:27:15;187.57;;;69.60;;
14066;SDS011;7108;42.684;23.350;2023-03-14T01:29:41;213.57;;;71.60;;
14066;SDS011;7108;42.684;23.350;2023-03-14T01:32:06;196.03;;;69.60;;
14066;SDS011;7108;42.684;23.350;2023-03-14T01:34:32;189.90;;;72.03;;
14066;SDS011;7108;42.684;23.350;2023-03-14T01:36:58;196.20;;;68.97;;
14066;SDS011;7108;42.684;23.350;2023-03-14T01:39:23;202.93;;;70.40;;
14066;SDS011;7108;42.684;23.350;2023-03-14T01:41:49;205.17;;;69.93;;
14066;SDS011;7108;42.684;23.350;2023-03-14T01:44:14;216.37;;;72.33;;
14066;SDS011;7108;42.684;23.350;2023-03-14T01:46:40;191.97;;;70.47;;
14066;SDS011;7108;42.684;23.350;2023-03-14T01:49:18;188.48;;;69.00;;
14066;SDS011;7108;42.684;23.350;2023-03-14T01:51:59;198.85;;;70.60;;
14066;SDS011;7108;42.684;23.350;2023-03-14T01:54:45;199.57;;;72.30;;
14066;SDS011;7108;42.684;23.350;2023-03-14T01:57:17;208.38;;;72.72;;
14066;SDS011;7108;42.684;23.350;2023-03-14T01:59:52;206.65;;;72.35;;
14066;SDS011;7108;42.684;23.350;2023-03-14T02:02:21;202.85;;;70.80;;
14066;SDS011;7108;42.684;23.350;2023-03-14T02:04:49;207.70;;;72.20;;
14066;SDS011;7108;42.684;23.350;2023-03-14T02:07:18;206.05;;;71.55;;
14066;SDS011;7108;42.684;23.350;2023-03-14T02:09:45;215.30;;;74.07;;
14066;SDS011;7108;42.684;23.350;2023-03-14T02:12:11;189.25;;;70.78;;
14066;SDS011;7108;42.684;23.350;2023-03-14T02:14:41;198.27;;;73.05;;
14066;SDS011;7108;42.684;23.350;2023-03-14T02:17:12;193.00;;;71.53;;
14066;SDS011;7108;42.684;23.350;2023-03-14T02:22:27;206.88;;;73.70;;
14066;SDS011;7108;42.684;23.350;2023-03-14T02:25:02;224.15;;;74.55;;
14066;SDS011;7108;42.684;23.350;2023-03-14T02:27:33;188.55;;;70.13;;
14066;SDS011;7108;42.684;23.350;2023-03-14T02:30:00;198.57;;;70.18;;
14066;SDS011;7108;42.684;23.350;2023-03-14T02:32:30;187.65;;;71.68;;
14066;SDS011;7108;42.684;23.350;2023-03-14T02:34:59;196.00;;;72.28;;
14066;SDS011;7108;42.684;23.350;2023-03-14T02:37:45;180.05;;;68.25;;
14066;SDS011;7108;42.684;23.350;2023-03-14T02:40:16;218.82;;;72.18;;
14066;SDS011;7108;42.684;23.350;2023-03-14T02:42:41;199.07;;;71.63;;
14066;SDS011;7108;42.684;23.350;2023-03-14T02:47:36;186.75;;;71.40;;
14066;SDS011;7108;42.684;23.350;2023-03-14T02:50:17;193.43;;;71.82;;
14066;SDS011;7108;42.684;23.350;2023-03-14T02:52:45;212.32;;;75.75;;
14066;SDS011;7108;42.684;23.350;2023-03-14T02:55:10;202.33;;;72.53;;
14066;SDS011;7108;42.684;23.350;2023-03-14T02:57:36;198.00;;;73.50;;
14066;SDS011;7108;42.684;23.350;2023-03-14T03:00:02;197.97;;;72.20;;
14066;SDS011;7108;42.684;23.350;2023-03-14T03:02:32;182.73;;;70.43;;
14066;SDS011;7108;42.684;23.350;2023-03-14T03:04:57;197.07;;;72.20;;
14066;SDS011;7108;42.684;23.350;2023-03-14T03:07:23;208.73;;;74.93;;
14066;SDS011;7108;42.684;23.350;2023-03-14T03:09:49;207.73;;;72.13;;
14066;SDS011;7108;42.684;23.350;2023-03-14T03:12:15;196.20;;;71.57;;
14066;SDS011;7108;42.684;23.350;2023-03-14T03:14:40;186.97;;;71.70;;
14066;SDS011;7108;42.684;23.350;2023-03-14T03:17:06;208.93;;;73.00;;
14066;SDS011;7108;42.684;23.350;2023-03-14T03:19:32;186.60;;;71.23;;
14066;SDS011;7108;42.684;23.350;2023-03-14T03:21:57;225.30;;;75.77;;
14066;SDS011;7108;42.684;23.350;2023-03-14T03:24:23;221.27;;;76.50;;
14066;SDS011;7108;42.684;23.350;2023-03-14T03:26:50;212.77;;;74.93;;
14066;SDS011;7108;42.684;23.350;2023-03-14T03:29:19;209.60;;;74.53;;
14066;SDS011;7108;42.684;23.350;2023-03-14T03:31:45;216.43;;;75.57;;
14066;SDS011;7108;42.684;23.350;2023-03-14T03:34:13;209.98;;;73.85;;
14066;SDS011;7108;42.684;23.350;2023-03-14T03:36:39;186.57;;;72.63;;
14066;SDS011;7108;42.684;23.350;2023-03-14T03:39:05;198.27;;;72.55;;
14066;SDS011;7108;42.684;23.350;2023-03-14T03:41:31;186.57;;;71.33;;
14066;SDS011;7108;42.684;23.350;2023-03-14T03:43:57;229.23;;;73.27;;
14066;SDS011;7108;42.684;23.350;2023-03-14T03:46:22;211.93;;;73.57;;
14066;SDS011;7108;42.684;23.350;2023-03-14T03:48:48;208.77;;;75.27;;
14066;SDS011;7108;42.684;23.350;2023-03-14T03:51:19;206.93;;;73.47;;
14066;SDS011;7108;42.684;23.350;2023-03-14T03:53:45;211.10;;;72.80;;
14066;SDS011;7108;42.684;23.350;2023-03-14T03:56:10;191.43;;;72.77;;
14066;SDS011;7108;42.684;23.350;2023-03-14T03:58:36;188.57;;;71.80;;
14066;SDS011;7108;42.684;23.350;2023-03-14T04:01:04;195.13;;;72.13;;
14066;SDS011;7108;42.684;23.350;2023-03-14T04:03:31;181.95;;;71.18;;
14066;SDS011;7108;42.684;23.350;2023-03-14T04:06:06;210.90;;;72.60;;
14066;SDS011;7108;42.684;23.350;2023-03-14T04:08:34;191.25;;;73.57;;
14066;SDS011;7108;42.684;23.350;2023-03-14T04:11:00;186.30;;;72.00;;
14066;SDS011;7108;42.684;23.350;2023-03-14T04:13:26;212.02;;;74.93;;
14066;SDS011;7108;42.684;23.350;2023-03-14T04:15:52;225.75;;;77.93;;
14066;SDS011;7108;42.684;23.350;2023-03-14T04:18:19;202.60;;;74.97;;
14066;SDS011;7108;42.684;23.350;2023-03-14T04:20:45;201.88;;;73.80;;
14066;SDS011;7108;42.684;23.350;2023-03-14T04:23:22;196.48;;;71.97;;
14066;SDS011;7108;42.684;23.350;2023-03-14T04:25:52;201.40;;;73.07;;
14066;SDS011;7108;42.684;23.350;2023-03-14T04:28:18;198.90;;;72.00;;
14066;SDS011;7108;42.684;23.350;2023-03-14T04:30:44;198.13;;;71.60;;
14066;SDS011;7108;42.684;23.350;2023-03-14T04:33:10;192.77;;;77.03;;
14066;SDS011;7108;42.684;23.350;2023-03-14T04:35:37;188.43;;;74.53;;
14066;SDS011;7108;42.684;23.350;2023-03-14T04:38:03;198.23;;;74.60;;
14066;SDS011;7108;42.684;23.350;2023-03-14T04:40:28;183.77;;;74.73;;
14066;SDS011;7108;42.684;23.350;2023-03-14T04:42:57;208.73;;;73.97;;
14066;SDS011;7108;42.684;23.350;2023-03-14T04:45:22;206.82;;;73.18;;
14066;SDS011;7108;42.684;23.350;2023-03-14T04:47:47;182.43;;;70.53;;
14066;SDS011;7108;42.684;23.350;2023-03-14T04:50:13;198.33;;;70.83;;
14066;SDS011;7108;42.684;23.350;2023-03-14T04:52:39;182.40;;;70.67;;
14066;SDS011;7108;42.684;23.350;2023-03-14T04:55:05;197.73;;;71.53;;
14066;SDS011;7108;42.684;23.350;2023-03-14T04:57:31;179.90;;;71.60;;
14066;SDS011;7108;42.684;23.350;2023-03-14T04:59:56;206.90;;;73.63;;
14066;SDS011;7108;42.684;23.350;2023-03-14T05:02:22;181.77;;;70.67;;
14066;SDS011;7108;42.684;23.350;2023-03-14T05:04:47;185.47;;;74.07;;
14066;SDS011;7108;42.684;23.350;2023-03-14T05:07:13;176.03;;;71.60;;
14066;SDS011;7108;42.684;23.350;2023-03-14T05:09:38;190.40;;;73.57;;
14066;SDS011;7108;42.684;23.350;2023-03-14T05:12:07;197.47;;;74.10;;
14066;SDS011;7108;42.684;23.350;2023-03-14T05:14:33;195.95;;;73.80;;
14066;SDS011;7108;42.684;23.350;2023-03-14T05:16:59;181.10;;;73.20;;
14066;SDS011;7108;42.684;23.350;2023-03-14T05:19:27;202.98;;;73.20;;
14066;SDS011;7108;42.684;23.350;2023-03-14T05:21:53;206.93;;;73.23;;
14066;SDS011;7108;42.684;23.350;2023-03-14T05:24:18;186.10;;;72.43;;
14066;SDS011;7108;42.684;23.350;2023-03-14T05:26:44;195.13;;;75.17;;
14066;SDS011;7108;42.684;23.350;2023-03-14T05:29:09;196.53;;;74.37;;
14066;SDS011;7108;42.684;23.350;2023-03-14T05:31:37;193.18;;;71.60;;
14066;SDS011;7108;42.684;23.350;2023-03-14T05:34:03;204.70;;;74.57;;
14066;SDS011;7108;42.684;23.350;2023-03-14T05:36:28;188.93;;;71.43;;
14066;SDS011;7108;42.684;23.350;2023-03-14T05:38:54;205.97;;;75.40;;
14066;SDS011;7108;42.684;23.350;2023-03-14T05:41:19;208.43;;;75.47;;
14066;SDS011;7108;42.684;23.350;2023-03-14T05:43:45;219.33;;;79.90;;
14066;SDS011;7108;42.684;23.350;2023-03-14T05:46:11;223.83;;;78.30;;
14066;SDS011;7108;42.684;23.350;2023-03-14T05:48:36;200.00;;;72.57;;
14066;SDS011;7108;42.684;23.350;2023-03-14T05:51:02;224.63;;;74.10;;
14066;SDS011;7108;42.684;23.350;2023-03-14T05:53:28;209.77;;;74.33;;
14066;SDS011;7108;42.684;23.350;2023-03-14T05:55:54;252.10;;;83.10;;
14066;SDS011;7108;42.684;23.350;2023-03-14T05:58:20;224.90;;;78.53;;
14066;SDS011;7108;42.684;23.350;2023-03-14T06:00:46;232.37;;;84.23;;
14066;SDS011;7108;42.684;23.350;2023-03-14T06:03:12;232.30;;;79.47;;
14066;SDS011;7108;42.684;23.350;2023-03-14T06:05:41;311.40;;;112.50;;
14066;SDS011;7108;42.684;23.350;2023-03-14T06:08:06;308.48;;;110.55;;
14066;SDS011;7108;42.684;23.350;2023-03-14T06:10:32;205.60;;;75.27;;
14066;SDS011;7108;42.684;23.350;2023-03-14T06:12:57;237.07;;;77.57;;
14066;SDS011;7108;42.684;23.350;2023-03-14T06:15:23;227.87;;;79.07;;
14066;SDS011;7108;42.684;23.350;2023-03-14T06:17:53;228.67;;;79.97;;
14066;SDS011;7108;42.684;23.350;2023-03-14T06:20:19;238.75;;;81.55;;
14066;SDS011;7108;42.684;23.350;2023-03-14T06:22:45;229.33;;;79.57;;
14066;SDS011;7108;42.684;23.350;2023-03-14T06:25:10;253.23;;;81.83;;
14066;SDS011;7108;42.684;23.350;2023-03-14T06:27:36;218.77;;;77.30;;
14066;SDS011;7108;42.684;23.350;2023-03-14T06:30:01;238.70;;;83.27;;
14066;SDS011;7108;42.684;23.350;2023-03-14T06:32:27;235.27;;;76.55;;
14066;SDS011;7108;42.684;23.350;2023-03-14T06:34:53;249.13;;;81.57;;
14066;SDS011;7108;42.684;23.350;2023-03-14T06:37:18;256.90;;;81.67;;
14066;SDS011;7108;42.684;23.350;2023-03-14T06:39:44;230.90;;;80.00;;
14066;SDS011;7108;42.684;23.350;2023-03-14T06:42:10;243.30;;;80.97;;
14066;SDS011;7108;42.684;23.350;2023-03-14T06:44:35;233.80;;;77.70;;
14066;SDS011;7108;42.684;23.350;2023-03-14T06:47:01;214.37;;;79.33;;
14066;SDS011;7108;42.684;23.350;2023-03-14T06:49:26;237.80;;;80.63;;
14066;SDS011;7108;42.684;23.350;2023-03-14T06:51:52;254.17;;;81.60;;
14066;SDS011;7108;42.684;23.350;2023-03-14T06:54:17;220.33;;;79.13;;
14066;SDS011;7108;42.684;23.350;2023-03-14T06:56:43;259.93;;;85.03;;
14066;SDS011;7108;42.684;23.350;2023-03-14T06:59:09;246.57;;;82.53;;
14066;SDS011;7108;42.684;23.350;2023-03-14T07:01:34;249.37;;;90.37;;
14066;SDS011;7108;42.684;23.350;2023-03-14T07:04:00;255.63;;;95.70;;
14066;SDS011;7108;42.684;23.350;2023-03-14T07:06:26;262.58;;;93.85;;
14066;SDS011;7108;42.684;23.350;2023-03-14T07:08:54;265.10;;;93.60;;
14066;SDS011;7108;42.684;23.350;2023-03-14T07:11:21;239.45;;;86.05;;
14066;SDS011;7108;42.684;23.350;2023-03-14T07:13:47;263.38;;;98.00;;
14066;SDS011;7108;42.684;23.350;2023-03-14T07:16:12;251.80;;;95.50;;
14066;SDS011;7108;42.684;23.350;2023-03-14T07:18:38;228.40;;;91.20;;
14066;SDS011;7108;42.684;23.350;2023-03-14T07:21:04;220.50;;;84.23;;
14066;SDS011;7108;42.684;23.350;2023-03-14T07:23:33;219.05;;;83.20;;
14066;SDS011;7108;42.684;23.350;2023-03-14T07:25:58;241.18;;;86.47;;
14066;SDS011;7108;42.684;23.350;2023-03-14T07:28:24;243.20;;;89.47;;
14066;SDS011;7108;42.684;23.350;2023-03-14T07:30:49;234.23;;;91.50;;
14066;SDS011;7108;42.684;23.350;2023-03-14T07:33:15;239.20;;;88.97;;
14066;SDS011;7108;42.684;23.350;2023-03-14T07:35:41;388.38;;;108.65;;
14066;SDS011;7108;42.684;23.350;2023-03-14T07:38:06;215.33;;;87.73;;
14066;SDS011;7108;42.684;23.350;2023-03-14T07:40:32;233.00;;;94.70;;
14066;SDS011;7108;42.684;23.350;2023-03-14T07:42:57;241.43;;;92.83;;
14066;SDS011;7108;42.684;23.350;2023-03-14T07:45:23;238.77;;;91.73;;
14066;SDS011;7108;42.684;23.350;2023-03-14T07:47:48;248.00;;;89.20;;
14066;SDS011;7108;42.684;23.350;2023-03-14T07:50:14;245.10;;;90.50;;
14066;SDS011;7108;42.684;23.350;2023-03-14T07:52:39;232.37;;;90.37;;
14066;SDS011;7108;42.684;23.350;2023-03-14T07:55:05;241.77;;;86.93;;
14066;SDS011;7108;42.684;23.350;2023-03-14T07:57:33;220.13;;;81.60;;
14066;SDS011;7108;42.684;23.350;2023-03-14T07:59:58;240.90;;;80.33;;
14066;SDS011;7108;42.684;23.350;2023-03-14T08:02:23;234.70;;;75.60;;
14066;SDS011;7108;42.684;23.350;2023-03-14T08:04:49;241.43;;;73.63;;
14066;SDS011;7108;42.684;23.350;2023-03-14T08:07:15;236.20;;;77.33;;
14066;SDS011;7108;42.684;23.350;2023-03-14T08:09:41;234.37;;;75.17;;
14066;SDS011;7108;42.684;23.350;2023-03-14T08:12:06;236.70;;;78.03;;
14066;SDS011;7108;42.684;23.350;2023-03-14T08:14:32;216.93;;;74.43;;
14066;SDS011;7108;42.684;23.350;2023-03-14T08:16:58;248.40;;;76.20;;
14066;SDS011;7108;42.684;23.350;2023-03-14T08:19:23;240.43;;;77.67;;
14066;SDS011;7108;42.684;23.350;2023-03-14T08:21:49;243.30;;;78.40;;
14066;SDS011;7108;42.684;23.350;2023-03-14T08:24:14;243.13;;;78.43;;
14066;SDS011;7108;42.684;23.350;2023-03-14T08:26:40;233.67;;;82.37;;
14066;SDS011;7108;42.684;23.350;2023-03-14T08:29:05;252.33;;;82.17;;
14066;SDS011;7108;42.684;23.350;2023-03-14T08:31:32;220.80;;;79.90;;
14066;SDS011;7108;42.684;23.350;2023-03-14T08:34:02;239.87;;;83.30;;
14066;SDS011;7108;42.684;23.350;2023-03-14T08:36:28;227.13;;;85.63;;
14066;SDS011;7108;42.684;23.350;2023-03-14T08:38:53;232.60;;;89.70;;
14066;SDS011;7108;42.684;23.350;2023-03-14T08:41:19;228.07;;;78.93;;
14066;SDS011;7108;42.684;23.350;2023-03-14T08:43:44;245.10;;;82.07;;
14066;SDS011;7108;42.684;23.350;2023-03-14T08:46:10;254.03;;;80.10;;
14066;SDS011;7108;42.684;23.350;2023-03-14T08:48:35;233.60;;;84.20;;
14066;SDS011;7108;42.684;23.350;2023-03-14T08:51:07;267.90;;;91.80;;
14066;SDS011;7108;42.684;23.350;2023-03-14T08:53:40;238.53;;;93.53;;
14066;SDS011;7108;42.684;23.350;2023-03-14T08:56:06;247.60;;;90.87;;
14066;SDS011;7108;42.684;23.350;2023-03-14T08:58:34;221.23;;;90.00;;
14066;SDS011;7108;42.684;23.350;2023-03-14T09:01:02;256.47;;;93.67;;
14066;SDS011;7108;42.684;23.350;2023-03-14T09:03:29;232.87;;;92.10;;
14066;SDS011;7108;42.684;23.350;2023-03-14T09:05:54;254.77;;;92.73;;
14066;SDS011;7108;42.684;23.350;2023-03-14T09:08:20;247.37;;;91.43;;
14066;SDS011;7108;42.684;23.350;2023-03-14T09:10:45;249.97;;;87.53;;
14066;SDS011;7108;42.684;23.350;2023-03-14T09:13:11;269.80;;;84.57;;
14066;SDS011;7108;42.684;23.350;2023-03-14T09:15:36;221.67;;;74.60;;
14066;SDS011;7108;42.684;23.350;2023-03-14T09:18:02;240.83;;;75.30;;
14066;SDS011;7108;42.684;23.350;2023-03-14T09:20:27;230.00;;;75.60;;
14066;SDS011;7108;42.684;23.350;2023-03-14T09:22:52;262.67;;;80.63;;
14066;SDS011;7108;42.684;23.350;2023-03-14T09:25:18;257.33;;;80.60;;
14066;SDS011;7108;42.684;23.350;2023-03-14T09:27:44;238.30;;;75.80;;
14066;SDS011;7108;42.684;23.350;2023-03-14T09:30:09;237.63;;;76.33;;
14066;SDS011;7108;42.684;23.350;2023-03-14T09:32:35;222.37;;;76.87;;
14066;SDS011;7108;42.684;23.350;2023-03-14T09:35:01;260.83;;;80.93;;
14066;SDS011;7108;42.684;23.350;2023-03-14T09:37:26;249.33;;;80.17;;
14066;SDS011;7108;42.684;23.350;2023-03-14T09:39:52;244.30;;;77.17;;
14066;SDS011;7108;42.684;23.350;2023-03-14T09:42:18;257.77;;;80.20;;
14066;SDS011;7108;42.684;23.350;2023-03-14T09:44:53;297.40;;;85.23;;
14066;SDS011;7108;42.684;23.350;2023-03-14T09:47:22;236.07;;;78.50;;
14066;SDS011;7108;42.684;23.350;2023-03-14T09:49:48;249.33;;;82.33;;
14066;SDS011;7108;42.684;23.350;2023-03-14T09:52:15;256.67;;;82.00;;
14066;SDS011;7108;42.684;23.350;2023-03-14T09:54:49;254.73;;;81.40;;
14066;SDS011;7108;42.684;23.350;2023-03-14T09:57:18;249.93;;;82.90;;
14066;SDS011;7108;42.684;23.350;2023-03-14T09:59:45;242.90;;;79.93;;
14066;SDS011;7108;42.684;23.350;2023-03-14T10:02:18;251.77;;;79.10;;
14066;SDS011;7108;42.684;23.350;2023-03-14T10:04:46;270.60;;;82.50;;
14066;SDS011;7108;42.684;23.350;2023-03-14T10:07:25;269.67;;;84.00;;
14066;SDS011;7108;42.684;23.350;2023-03-14T10:09:54;256.13;;;85.13;;
14066;SDS011;7108;42.684;23.350;2023-03-14T10:12:19;250.13;;;83.07;;
14066;SDS011;7108;42.684;23.350;2023-03-14T10:14:57;273.77;;;87.73;;
14066;SDS011;7108;42.684;23.350;2023-03-14T10:17:28;229.07;;;79.67;;
14066;SDS011;7108;42.684;23.350;2023-03-14T10:19:58;257.27;;;81.90;;
14066;SDS011;7108;42.684;23.350;2023-03-14T10:22:26;252.30;;;81.47;;
14066;SDS011;7108;42.684;23.350;2023-03-14T10:24:56;260.03;;;83.23;;
14066;SDS011;7108;42.684;23.350;2023-03-14T10:27:31;250.97;;;82.60;;
14066;SDS011;7108;42.684;23.350;2023-03-14T10:30:00;258.57;;;82.67;;
14066;SDS011;7108;42.684;23.350;2023-03-14T10:37:53;237.77;;;79.37;;
14066;SDS011;7108;42.684;23.350;2023-03-14T10:40:24;246.87;;;81.77;;
14066;SDS011;7108;42.684;23.350;2023-03-14T10:43:04;271.03;;;90.77;;
14066;SDS011;7108;42.684;23.350;2023-03-14T10:45:41;241.97;;;82.90;;
14066;SDS011;7108;42.684;23.350;2023-03-14T10:48:18;250.30;;;82.47;;
14066;SDS011;7108;42.684;23.350;2023-03-14T10:51:04;256.63;;;80.60;;
14066;SDS011;7108;42.684;23.350;2023-03-14T10:54:00;266.83;;;85.60;;
14066;SDS011;7108;42.684;23.350;2023-03-14T10:56:28;258.90;;;83.03;;
14066;SDS011;7108;42.684;23.350;2023-03-14T10:59:02;259.67;;;82.17;;
14066;SDS011;7108;42.684;23.350;2023-03-14T11:09:47;247.60;;;81.10;;
14066;SDS011;7108;42.684;23.350;2023-03-14T11:12:34;236.07;;;80.23;;
14066;SDS011;7108;42.684;23.350;2023-03-14T11:18:41;263.27;;;84.13;;
14066;SDS011;7108;42.684;23.350;2023-03-14T11:21:02;271.63;;;85.77;;
14066;SDS011;7108;42.684;23.350;2023-03-14T11:24:02;261.57;;;81.60;;
14066;SDS011;7108;42.684;23.350;2023-03-14T11:26:56;270.33;;;85.63;;
14066;SDS011;7108;42.684;23.350;2023-03-14T11:29:39;232.23;;;80.13;;
14066;SDS011;7108;42.684;23.350;2023-03-14T11:35:30;276.13;;;83.67;;
14066;SDS011;7108;42.684;23.350;2023-03-14T11:41:10;245.40;;;81.67;;
14066;SDS011;7108;42.684;23.350;2023-03-14T11:49:59;266.37;;;87.60;;
14066;SDS011;7108;42.684;23.350;2023-03-14T11:52:28;281.03;;;85.60;;
14066;SDS011;7108;42.684;23.350;2023-03-14T11:55:04;242.73;;;83.87;;
14066;SDS011;7108;42.684;23.350;2023-03-14T11:57:42;251.10;;;90.17;;
14066;SDS011;7108;42.684;23.350;2023-03-14T12:00:19;256.57;;;87.97;;
14066;SDS011;7108;42.684;23.350;2023-03-14T12:05:30;267.97;;;88.63;;
14066;SDS011;7108;42.684;23.350;2023-03-14T12:10:48;248.80;;;89.27;;
14066;SDS011;7108;42.684;23.350;2023-03-14T12:13:16;260.87;;;88.10;;
14066;SDS011;7108;42.684;23.350;2023-03-14T12:15:47;255.03;;;88.73;;
14066;SDS011;7108;42.684;23.350;2023-03-14T12:18:33;300.37;;;91.80;;
14066;SDS011;7108;42.684;23.350;2023-03-14T12:21:06;297.37;;;92.43;;
14066;SDS011;7108;42.684;23.350;2023-03-14T12:23:49;261.97;;;89.50;;
14066;SDS011;7108;42.684;23.350;2023-03-14T12:26:22;255.57;;;88.37;;
14066;SDS011;7108;42.684;23.350;2023-03-14T12:48:00;305.10;;;92.80;;
14066;SDS011;7108;42.684;23.350;2023-03-14T12:50:07;269.90;;;86.83;;
14066;SDS011;7108;42.684;23.350;2023-03-14T12:55:29;261.50;;;87.57;;
14066;SDS011;7108;42.684;23.350;2023-03-14T12:58:04;259.50;;;87.43;;
14066;SDS011;7108;42.684;23.350;2023-03-14T13:00:40;242.57;;;89.80;;
14066;SDS011;7108;42.684;23.350;2023-03-14T13:05:57;245.67;;;88.23;;
14066;SDS011;7108;42.684;23.350;2023-03-14T13:08:45;270.93;;;91.50;;
14066;SDS011;7108;42.684;23.350;2023-03-14T13:11:16;259.13;;;88.07;;
14066;SDS011;7108;42.684;23.350;2023-03-14T13:13:45;255.53;;;89.73;;
14066;SDS011;7108;42.684;23.350;2023-03-14T13:16:16;298.17;;;95.63;;
14066;SDS011;7108;42.684;23.350;2023-03-14T13:18:47;274.93;;;90.00;;
14066;SDS011;7108;42.684;23.350;2023-03-14T13:21:18;286.30;;;91.10;;
14066;SDS011;7108;42.684;23.350;2023-03-14T13:23:55;268.03;;;88.80;;
14066;SDS011;7108;42.684;23.350;2023-03-14T13:26:26;243.47;;;87.53;;
14066;SDS011;7108;42.684;23.350;2023-03-14T13:28:59;251.20;;;86.70;;
14066;SDS011;7108;42.684;23.350;2023-03-14T13:31:25;254.57;;;84.27;;
14066;SDS011;7108;42.684;23.350;2023-03-14T13:34:01;265.17;;;90.57;;
14066;SDS011;7108;42.684;23.350;2023-03-14T13:36:29;245.43;;;84.23;;
14066;SDS011;7108;42.684;23.350;2023-03-14T13:38:56;255.77;;;86.13;;
14066;SDS011;7108;42.684;23.350;2023-03-14T13:41:26;266.47;;;85.57;;
14066;SDS011;7108;42.684;23.350;2023-03-14T13:43:56;267.37;;;88.00;;
14066;SDS011;7108;42.684;23.350;2023-03-14T13:46:28;249.00;;;85.90;;
14066;SDS011;7108;42.684;23.350;2023-03-14T13:48:55;267.67;;;91.53;;
14066;SDS011;7108;42.684;23.350;2023-03-14T13:51:26;265.07;;;89.83;;
14066;SDS011;7108;42.684;23.350;2023-03-14T13:53:57;265.53;;;88.23;;
14066;SDS011;7108;42.684;23.350;2023-03-14T13:56:29;245.77;;;86.77;;
14066;SDS011;7108;42.684;23.350;2023-03-14T13:58:57;262.93;;;89.37;;
14066;SDS011;7108;42.684;23.350;2023-03-14T14:01:30;251.67;;;89.17;;
14066;SDS011;7108;42.684;23.350;2023-03-14T14:03:58;262.83;;;85.53;;
14066;SDS011;7108;42.684;23.350;2023-03-14T14:06:32;255.17;;;88.23;;
14066;SDS011;7108;42.684;23.350;2023-03-14T14:09:12;264.47;;;88.67;;
14066;SDS011;7108;42.684;23.350;2023-03-14T14:11:46;251.50;;;87.93;;
14066;SDS011;7108;42.684;23.350;2023-03-14T14:14:36;248.67;;;86.03;;
14066;SDS011;7108;42.684;23.350;2023-03-14T14:17:06;286.03;;;90.13;;
14066;SDS011;7108;42.684;23.350;2023-03-14T14:19:35;240.93;;;83.93;;
14066;SDS011;7108;42.684;23.350;2023-03-14T14:22:03;278.13;;;87.77;;
14066;SDS011;7108;42.684;23.350;2023-03-14T14:24:30;252.07;;;85.17;;
14066;SDS011;7108;42.684;23.350;2023-03-14T14:27:01;270.77;;;87.87;;
14066;SDS011;7108;42.684;23.350;2023-03-14T14:29:34;260.93;;;87.67;;
14066;SDS011;7108;42.684;23.350;2023-03-14T14:37:27;256.50;;;84.07;;
14066;SDS011;7108;42.684;23.350;2023-03-14T14:39:56;248.50;;;81.23;;
14066;SDS011;7108;42.684;23.350;2023-03-14T14:42:28;276.60;;;87.13;;
14066;SDS011;7108;42.684;23.350;2023-03-14T14:44:56;269.97;;;85.83;;
14066;SDS011;7108;42.684;23.350;2023-03-14T14:47:24;265.10;;;90.33;;
14066;SDS011;7108;42.684;23.350;2023-03-14T14:49:54;293.10;;;95.10;;
14066;SDS011;7108;42.684;23.350;2023-03-14T14:52:36;307.17;;;91.97;;
14066;SDS011;7108;42.684;23.350;2023-03-14T14:55:39;276.53;;;84.47;;
14066;SDS011;7108;42.684;23.350;2023-03-14T14:57:59;285.57;;;86.67;;
14066;SDS011;7108;42.684;23.350;2023-03-14T15:00:39;289.77;;;91.13;;
14066;SDS011;7108;42.684;23.350;2023-03-14T15:03:10;305.97;;;92.83;;
14066;SDS011;7108;42.684;23.350;2023-03-14T15:05:38;288.63;;;88.67;;
14066;SDS011;7108;42.684;23.350;2023-03-14T15:08:08;279.80;;;108.07;;
14066;SDS011;7108;42.684;23.350;2023-03-14T15:10:34;291.83;;;111.50;;
14066;SDS011;7108;42.684;23.350;2023-03-14T15:13:00;274.43;;;88.77;;
14066;SDS011;7108;42.684;23.350;2023-03-14T15:15:25;294.93;;;88.00;;
14066;SDS011;7108;42.684;23.350;2023-03-14T15:17:51;298.27;;;88.80;;
14066;SDS011;7108;42.684;23.350;2023-03-14T15:20:17;315.80;;;88.80;;
14066;SDS011;7108;42.684;23.350;2023-03-14T15:22:44;333.73;;;95.63;;
14066;SDS011;7108;42.684;23.350;2023-03-14T15:25:09;309.57;;;91.20;;
14066;SDS011;7108;42.684;23.350;2023-03-14T15:27:36;286.27;;;85.70;;